Baker City Municipal Airport Baker City US
ICAO: KBKE
IATA: BKE
Category: Medium
Scheduled Services: No

Elevation: 3373 ft
TransAlt. 18000 ft.

Airport Communications:
ASOS:134.275
SALT LAKE CITY CNTR:128.05
CTAF/UNICOM:123

KBKE Zoom In..

If you have problems with the map follow the link
https://www.worldairports.se/pages/airport.php?
ICAO=KBKE

Runways:

(A) RW 08 length 3670 ft width 140 ft
---- / hdg 81

(B) RW 13 length 5085 ft width 100 ft
---- / hdg 126

(C) RW 17 length 4359 ft width 75 ft
---- / hdg 165

(D) RW 26 length 3670 ft width 140 ft
---- / hdg 261

(E) RW 31 length 5085 ft width 100 ft
---- / hdg 306

(F) RW 35 length 4359 ft width 75 ft
---- / hdg 345

Location; KBKE
Day. 23 / Time. 17.53 Zulu
* Altimeter: 30.00
* Temperature: 16° c. 60.8°f.
* Wind from: VRB° Speed 04 kn.
Dewpoint: 07° c.
Visibility: 10 Statute Miles.
Clouds: Broken 8500 ft.

KBKE 231753Z AUTO VRB04KT 10SM BKN085 16/07 A3000 RMK AO2 SLP154 60000 T01610072 10161 20044 50002


Wind From VRB°
Speed 04 kn.

 
 
jpsmedia.com for Web Design worldairports.se 2018   terms of use